Time;durP1;ratioP1;P1;durP2;ratioP2;P2;SDS_P1;SDS_P2;PMS_P1;PMS_P2;Temp;Humidity;BMP_temperature;BMP_pressure;BME280_temperature;BME280_humidity;BME280_pressure;Samples;Min_cycle;Max_cycle;Signal;HPM_P1;HPM_P2
2022/04/16 00:02:11;;;;;;;14.02;12.00;;;7.40;99.90;;;;;;4918760;29;20043;-76
2022/04/16 00:04:37;;;;;;;16.63;12.35;;;7.30;99.90;;;;;;4918270;29;20055;-76
2022/04/16 00:07:06;;;;;;;18.63;13.48;;;7.20;99.90;;;;;;4920220;29;20103;-76
2022/04/16 00:09:32;;;;;;;15.30;12.63;;;7.20;99.90;;;;;;4920858;29;20102;-76
2022/04/16 00:12:00;;;;;;;16.42;12.70;;;7.10;99.90;;;;;;4934709;29;20047;-76
2022/04/16 00:14:28;;;;;;;16.38;13.00;;;7.00;99.90;;;;;;4918610;29;20485;-76
2022/04/16 00:16:53;;;;;;;18.60;12.57;;;6.80;99.90;;;;;;4918409;29;20392;-76
2022/04/16 00:19:19;;;;;;;17.58;12.88;;;6.80;99.90;;;;;;4918114;29;20039;-76
2022/04/16 00:21:45;;;;;;;19.15;14.57;;;6.60;99.90;;;;;;4918049;29;20498;-76
2022/04/16 00:24:10;;;;;;;16.20;13.43;;;6.60;99.90;;;;;;4918283;29;20039;-76
2022/04/16 00:26:40;;;;;;;18.65;13.95;;;6.50;99.90;;;;;;4918365;29;20058;-76
2022/04/16 00:29:07;;;;;;;20.42;15.50;;;6.50;99.90;;;;;;4918015;29;20126;-76
2022/04/16 00:31:36;;;;;;;19.40;14.65;;;6.50;99.90;;;;;;4914978;29;20495;-76
2022/04/16 00:34:05;;;;;;;18.08;14.73;;;6.50;99.90;;;;;;4917109;29;20499;-76
2022/04/16 00:36:30;;;;;;;18.02;14.52;;;6.40;99.90;;;;;;4917133;29;20040;-76
2022/04/16 00:38:56;;;;;;;23.95;15.63;;;6.40;99.90;;;;;;4914613;29;20044;-76
2022/04/16 00:41:24;;;;;;;19.63;15.77;;;6.40;99.90;;;;;;4914728;29;20127;-76
2022/04/16 00:43:52;;;;;;;22.77;16.27;;;6.30;99.90;;;;;;4917493;29;20067;-76
2022/04/16 00:46:19;;;;;;;22.67;16.40;;;6.30;99.90;;;;;;4918267;29;20059;-76
2022/04/16 00:48:47;;;;;;;19.08;15.60;;;6.20;99.90;;;;;;4917603;29;20561;-76
2022/04/16 00:51:14;;;;;;;21.42;16.80;;;6.20;99.90;;;;;;4917866;29;20050;-76
2022/04/16 00:53:40;;;;;;;22.98;16.10;;;6.20;99.90;;;;;;4917796;29;20123;-76
2022/04/16 00:56:07;;;;;;;20.08;16.05;;;6.20;99.90;;;;;;4917498;29;20043;-76
2022/04/16 00:58:33;;;;;;;22.55;17.08;;;6.20;99.90;;;;;;4917817;29;20047;-76
2022/04/16 01:01:02;;;;;;;23.10;17.27;;;6.10;99.90;;;;;;4933746;29;20040;-76
2022/04/16 01:03:30;;;;;;;22.40;15.63;;;6.10;99.90;;;;;;4917382;29;20397;-76
2022/04/16 01:05:56;;;;;;;25.30;17.77;;;6.00;99.90;;;;;;4917456;29;20578;-76
2022/04/16 01:08:24;;;;;;;24.05;17.48;;;5.90;99.90;;;;;;4917810;29;20047;-76
2022/04/16 01:10:50;;;;;;;25.15;18.75;;;5.90;99.90;;;;;;4917725;29;20439;-76
2022/04/16 01:13:19;;;;;;;26.27;18.92;;;5.90;99.90;;;;;;4917679;29;20058;-76
2022/04/16 01:15:45;;;;;;;29.60;18.23;;;5.90;99.90;;;;;;4917093;29;20059;-76
2022/04/16 01:18:14;;;;;;;22.95;17.88;;;5.90;99.90;;;;;;4932879;29;20379;-76
2022/04/16 01:20:44;;;;;;;25.85;19.02;;;5.90;99.90;;;;;;4918200;29;20406;-76
2022/04/16 01:23:10;;;;;;;28.00;18.85;;;5.80;99.90;;;;;;4917747;29;20063;-76
2022/04/16 01:25:39;;;;;;;27.95;19.17;;;5.70;99.90;;;;;;4914393;29;20044;-76
2022/04/16 01:28:12;;;;;;;29.08;19.70;;;5.70;99.90;;;;;;4915866;29;20044;-76
2022/04/16 01:30:38;;;;;;;26.48;19.17;;;5.70;99.90;;;;;;4917914;29;20044;-76
2022/04/16 01:33:04;;;;;;;29.98;19.90;;;5.60;99.90;;;;;;4914651;29;20047;-76
2022/04/16 01:35:30;;;;;;;26.60;19.67;;;5.60;99.90;;;;;;4927200;29;20570;-76
2022/04/16 01:37:58;;;;;;;27.10;20.42;;;5.60;99.90;;;;;;4917827;29;20384;-76
2022/04/16 01:40:27;;;;;;;28.23;20.60;;;5.60;99.90;;;;;;4917424;29;20071;-76
2022/04/16 01:42:56;;;;;;;26.70;19.55;;;5.60;99.90;;;;;;4917350;29;20075;-76
2022/04/16 01:45:24;;;;;;;25.90;21.27;;;5.70;99.90;;;;;;4917378;29;20470;-76
2022/04/16 01:47:53;;;;;;;30.75;22.00;;;5.60;99.90;;;;;;4914214;29;20075;-76
2022/04/16 01:50:22;;;;;;;31.00;21.23;;;5.70;99.90;;;;;;4917028;29;20062;-76
2022/04/16 01:52:47;;;;;;;32.15;21.13;;;5.60;99.90;;;;;;4917553;29;20048;-76
2022/04/16 01:55:14;;;;;;;33.17;22.02;;;5.60;99.90;;;;;;4919930;29;20472;-76
2022/04/16 01:57:40;;;;;;;32.08;21.77;;;5.60;99.90;;;;;;4914952;29;20043;-76
2022/04/16 02:00:07;;;;;;;31.77;22.00;;;5.80;99.90;;;;;;4916804;29;20532;-76
2022/04/16 02:02:36;;;;;;;26.67;20.15;;;5.80;99.90;;;;;;4917690;29;20067;-76
2022/04/16 02:05:04;;;;;;;33.38;22.95;;;5.70;99.90;;;;;;4914002;29;20051;-76
2022/04/16 02:07:30;;;;;;;29.58;22.63;;;5.70;99.90;;;;;;4927507;29;20040;-76
2022/04/16 02:09:56;;;;;;;27.95;20.55;;;5.80;99.90;;;;;;4917170;29;20529;-76
2022/04/16 02:12:22;;;;;;;30.83;21.10;;;5.80;99.90;;;;;;4917232;29;20051;-76
2022/04/16 02:14:51;;;;;;;36.90;22.48;;;5.70;99.90;;;;;;4916617;29;20067;-76
2022/04/16 02:17:17;;;;;;;34.28;23.65;;;5.70;99.90;;;;;;4917109;29;20043;-76
2022/04/16 02:19:43;;;;;;;32.72;22.83;;;5.60;99.90;;;;;;4916390;29;20213;-76
2022/04/16 02:22:11;;;;;;;32.70;22.83;;;5.60;99.90;;;;;;4917121;29;20055;-76
2022/04/16 02:24:38;;;;;;;36.65;24.38;;;5.60;99.90;;;;;;4917695;29;20402;-76
2022/04/16 02:27:08;;;;;;;34.15;23.77;;;5.50;99.90;;;;;;4917183;29;20071;-76
2022/04/16 02:29:36;;;;;;;33.03;23.65;;;5.50;99.90;;;;;;4915053;29;20574;-76
2022/04/16 02:32:03;;;;;;;28.35;22.17;;;5.50;99.90;;;;;;4922239;29;20043;-76
2022/04/16 02:34:31;;;;;;;34.10;22.35;;;5.40;99.90;;;;;;4937417;29;20044;-76
2022/04/16 02:36:58;;;;;;;31.02;21.35;;;5.40;99.90;;;;;;4920171;29;20066;-76
2022/04/16 02:39:26;;;;;;;32.08;20.90;;;5.30;99.90;;;;;;4920307;29;20173;-76
2022/04/16 02:41:52;;;;;;;28.50;19.85;;;5.20;99.90;;;;;;4919730;29;20065;-76
2022/04/16 02:47:05;;;;;;;26.52;20.42;;;5.00;99.90;;;;;;4935928;29;20039;-76
2022/04/16 02:49:36;;;;;;;34.25;23.48;;;4.90;99.90;;;;;;4919914;29;20130;-76
2022/04/16 02:52:02;;;;;;;33.85;22.63;;;4.90;99.90;;;;;;4920179;29;20079;-76
2022/04/16 02:54:28;;;;;;;31.50;22.40;;;4.80;99.90;;;;;;4919915;29;20047;-76
2022/04/16 02:56:55;;;;;;;40.22;24.98;;;4.90;99.90;;;;;;4919355;29;20048;-76
2022/04/16 02:59:21;;;;;;;38.92;25.35;;;4.80;99.90;;;;;;4918432;29;20099;-76
2022/04/16 03:01:47;;;;;;;36.38;23.33;;;4.80;99.90;;;;;;4919738;29;20036;-76
2022/04/16 03:04:13;;;;;;;38.17;24.92;;;4.90;99.90;;;;;;4919744;29;20040;-76
2022/04/16 03:06:39;;;;;;;39.63;25.02;;;4.80;99.90;;;;;;4944624;23;20131;-74
2022/04/16 03:09:05;;;;;;;32.75;23.38;;;4.80;99.90;;;;;;4932241;29;20458;-74
2022/04/16 03:11:31;;;;;;;37.95;25.58;;;4.80;99.90;;;;;;4952790;29;20039;-74
2022/04/16 03:17:31;;;;;;;36.78;23.83;;;4.70;99.90;;;;;;4935285;29;20040;-74
2022/04/16 03:19:26;;;;;;;39.97;26.75;;;4.70;99.90;;;;;;4934950;29;20102;-74
2022/04/16 03:21:52;;;;;;;35.58;22.95;;;4.70;99.90;;;;;;4935053;29;20043;-74
2022/04/16 03:24:18;;;;;;;30.17;22.25;;;4.70;99.90;;;;;;4934932;29;20047;-74
2022/04/16 03:26:43;;;;;;;44.63;26.58;;;4.60;99.90;;;;;;4934824;29;20146;-74
2022/04/16 03:29:09;;;;;;;41.22;25.67;;;4.60;99.90;;;;;;4918919;29;20135;-74
2022/04/16 03:31:34;;;;;;;36.45;24.40;;;4.60;99.90;;;;;;4934888;29;20039;-74
2022/04/16 03:34:00;;;;;;;43.28;27.40;;;4.60;99.90;;;;;;4934985;29;20642;-74
2022/04/16 03:36:25;;;;;;;44.97;28.83;;;4.50;99.90;;;;;;4934858;29;20047;-74
2022/04/16 03:38:51;;;;;;;48.00;28.42;;;4.60;99.90;;;;;;4918824;29;20032;-74
2022/04/16 03:41:16;;;;;;;48.95;28.50;;;4.60;99.90;;;;;;4934242;29;20490;-74
2022/04/16 03:43:42;;;;;;;52.97;28.70;;;4.60;99.90;;;;;;4935179;29;20552;-74
2022/04/16 03:46:07;;;;;;;50.88;28.65;;;4.60;99.90;;;;;;4918708;29;20126;-74
2022/04/16 03:48:33;;;;;;;50.45;28.80;;;4.60;99.90;;;;;;4911694;29;20043;-74
2022/04/16 03:50:59;;;;;;;43.65;27.33;;;4.70;99.90;;;;;;4934456;29;20138;-74
2022/04/16 03:53:25;;;;;;;46.08;28.38;;;4.80;99.90;;;;;;4934522;29;20444;-74
2022/04/16 04:01:18;;;;;;;50.20;30.10;;;5.00;99.90;;;;;;4934172;29;20125;-74
2022/04/16 04:03:46;;;;;;;55.42;31.92;;;5.10;99.90;;;;;;4934495;29;20521;-74
2022/04/16 04:06:12;;;;;;;56.97;32.15;;;5.20;99.90;;;;;;4934136;29;20099;-74
2022/04/16 04:08:37;;;;;;;52.88;31.45;;;5.20;99.90;;;;;;4933651;29;20451;-74
2022/04/16 04:11:03;;;;;;;56.50;31.23;;;5.30;99.90;;;;;;4918363;29;20035;-74
2022/04/16 04:13:29;;;;;;;55.63;32.40;;;5.30;99.90;;;;;;4916840;29;20047;-74
2022/04/16 04:15:54;;;;;;;58.90;31.13;;;5.30;99.90;;;;;;4918263;29;20095;-74
2022/04/16 04:18:22;;;;;;;48.80;30.50;;;5.40;99.90;;;;;;4933907;29;20514;-74
2022/04/16 04:20:48;;;;;;;50.33;29.35;;;5.50;99.90;;;;;;4918157;29;20036;-74
2022/04/16 04:23:13;;;;;;;49.90;30.73;;;5.50;99.90;;;;;;4918009;29;20032;-74
2022/04/16 04:25:39;;;;;;;54.83;32.85;;;5.60;99.90;;;;;;4918053;29;20416;-74
2022/04/16 04:28:04;;;;;;;51.40;31.05;;;5.70;99.90;;;;;;4933270;29;20530;-74
2022/04/16 04:30:30;;;;;;;50.20;30.02;;;5.70;99.90;;;;;;4933625;29;20040;-74
2022/04/16 04:32:57;;;;;;;46.42;29.75;;;5.80;99.90;;;;;;4933938;29;20055;-75
2022/04/16 04:35:23;;;;;;;51.13;30.38;;;5.90;99.90;;;;;;4933580;29;20079;-74
2022/04/16 04:37:48;;;;;;;48.03;29.27;;;5.90;99.90;;;;;;4933584;29;20036;-74
2022/04/16 04:40:14;;;;;;;51.72;31.75;;;6.00;99.90;;;;;;4933265;29;20046;-74
2022/04/16 04:42:39;;;;;;;49.97;31.17;;;6.10;99.90;;;;;;4933831;29;20391;-74
2022/04/16 04:45:13;;;;;;;47.08;29.05;;;6.20;99.90;;;;;;4933984;29;20047;-74
2022/04/16 04:47:38;;;;;;;46.45;30.00;;;6.30;99.90;;;;;;4918007;29;20506;-74
2022/04/16 04:50:05;;;;;;;50.20;31.02;;;6.40;99.90;;;;;;4933641;29;20153;-74
2022/04/16 04:52:31;;;;;;;44.03;29.08;;;6.40;99.90;;;;;;4917055;29;20046;-74
2022/04/16 04:54:58;;;;;;;47.75;30.23;;;6.50;99.90;;;;;;4933555;29;20138;-74
2022/04/16 04:57:23;;;;;;;45.13;29.23;;;6.60;99.90;;;;;;4933161;29;20047;-74
2022/04/16 04:59:49;;;;;;;40.72;27.30;;;6.70;99.90;;;;;;4917461;29;20405;-74
2022/04/16 05:02:15;;;;;;;39.90;27.27;;;6.80;99.90;;;;;;4933711;29;20497;-74
2022/04/16 05:04:41;;;;;;;41.22;29.52;;;6.90;99.90;;;;;;4933238;29;20051;-74
2022/04/16 05:07:07;;;;;;;38.50;27.55;;;6.90;99.90;;;;;;4933268;29;20040;-74
2022/04/16 05:09:33;;;;;;;43.67;28.42;;;7.00;99.90;;;;;;4933068;29;20127;-74
2022/04/16 05:11:59;;;;;;;40.67;28.27;;;7.00;99.90;;;;;;4933584;29;20122;-74
2022/04/16 05:14:25;;;;;;;36.40;25.73;;;7.00;99.90;;;;;;4917604;29;20514;-74
2022/04/16 05:16:50;;;;;;;37.28;27.38;;;7.10;99.90;;;;;;4917428;29;20521;-74
2022/04/16 05:19:16;;;;;;;36.20;25.77;;;7.10;99.90;;;;;;4933092;29;20036;-74
2022/04/16 05:21:42;;;;;;;36.53;26.20;;;7.20;99.90;;;;;;4917397;29;20143;-74
2022/04/16 05:24:09;;;;;;;40.10;27.85;;;7.20;99.90;;;;;;4932710;29;20071;-74
2022/04/16 05:26:35;;;;;;;31.58;23.10;;;7.30;99.90;;;;;;4932301;29;20112;-74
2022/04/16 05:29:01;;;;;;;29.80;21.13;;;7.40;99.90;;;;;;4917110;29;20127;-74
2022/04/16 05:31:27;;;;;;;31.65;22.60;;;7.40;99.90;;;;;;4933174;29;20079;-74
2022/04/16 05:36:38;;;;;;;27.83;22.55;;;7.50;99.90;;;;;;4932562;29;20056;-74
2022/04/16 05:39:04;;;;;;;28.35;20.13;;;7.50;99.90;;;;;;4932905;29;20577;-74
2022/04/16 05:41:29;;;;;;;28.52;21.92;;;7.60;99.90;;;;;;4932337;29;20469;-75
2022/04/16 05:43:55;;;;;;;23.88;18.35;;;7.60;99.90;;;;;;4917258;29;20379;-74
2022/04/16 05:46:21;;;;;;;27.38;19.85;;;7.60;99.90;;;;;;4933093;29;20043;-74
2022/04/16 05:48:47;;;;;;;24.15;18.65;;;7.70;99.90;;;;;;4932825;29;20463;-74
2022/04/16 05:51:13;;;;;;;23.83;19.23;;;7.70;99.90;;;;;;4932742;29;20044;-74
2022/04/16 05:53:40;;;;;;;26.42;19.63;;;7.70;99.90;;;;;;4932959;29;20050;-75
2022/04/16 05:56:06;;;;;;;25.27;20.55;;;7.80;99.90;;;;;;4932665;29;20127;-74
2022/04/16 05:58:32;;;;;;;23.98;19.60;;;7.70;99.90;;;;;;4932720;29;20062;-75
2022/04/16 06:00:58;;;;;;;25.67;20.15;;;7.70;99.90;;;;;;4933159;29;20132;-77
2022/04/16 06:03:24;;;;;;;22.92;17.08;;;7.70;99.90;;;;;;4902964;29;20131;-76
2022/04/16 06:05:52;;;;;;;20.88;16.25;;;7.80;99.90;;;;;;4901490;29;20036;-74
2022/04/16 06:08:17;;;;;;;22.85;17.83;;;7.80;99.90;;;;;;4923675;29;20127;-74
2022/04/16 06:10:44;;;;;;;24.20;18.27;;;7.90;99.90;;;;;;4933334;29;20481;-74
2022/04/16 06:13:11;;;;;;;25.10;18.65;;;8.00;99.90;;;;;;4936460;29;20043;-73
2022/04/16 06:15:40;;;;;;;23.77;18.17;;;8.10;99.90;;;;;;4936138;29;20047;-74
2022/04/16 06:18:05;;;;;;;25.38;18.63;;;8.20;99.90;;;;;;4936202;29;20120;-74
2022/04/16 06:20:31;;;;;;;23.17;18.10;;;8.30;99.90;;;;;;4936213;29;20603;-73
2022/04/16 06:22:56;;;;;;;21.35;17.38;;;8.30;99.90;;;;;;4916459;29;20513;-75
2022/04/16 06:25:22;;;;;;;22.50;16.33;;;8.30;99.90;;;;;;4936209;29;20043;-75
2022/04/16 06:27:48;;;;;;;21.20;15.48;;;8.40;99.90;;;;;;4936033;29;20126;-76
2022/04/16 06:30:13;;;;;;;18.48;15.23;;;8.40;99.90;;;;;;4935381;29;20087;-76
2022/04/16 06:32:39;;;;;;;20.10;14.40;;;8.40;99.90;;;;;;4935974;29;20519;-76
2022/04/16 06:35:05;;;;;;;21.40;14.80;;;8.40;99.90;;;;;;4936099;29;20044;-76
2022/04/16 06:37:32;;;;;;;20.15;15.30;;;8.50;99.90;;;;;;4935233;29;20055;-76
2022/04/16 06:39:58;;;;;;;19.35;14.48;;;8.60;99.90;;;;;;4935846;29;20130;-76
2022/04/16 06:42:24;;;;;;;20.15;15.48;;;8.60;99.90;;;;;;4936018;29;20152;-76
2022/04/16 06:44:50;;;;;;;20.23;15.48;;;8.70;99.90;;;;;;4919923;29;20087;-76
2022/04/16 06:47:15;;;;;;;20.30;15.45;;;8.70;99.90;;;;;;4934872;29;20490;-76
2022/04/16 06:49:41;;;;;;;19.00;13.32;;;8.80;99.90;;;;;;4935539;29;20054;-76
2022/04/16 06:52:06;;;;;;;18.30;13.80;;;8.90;99.90;;;;;;4934903;29;20039;-76
2022/04/16 06:54:32;;;;;;;20.27;14.93;;;9.00;99.90;;;;;;4934818;29;20049;-76
2022/04/16 06:56:57;;;;;;;20.90;15.57;;;9.00;99.90;;;;;;4935901;29;20043;-77
2022/04/16 06:59:23;;;;;;;20.88;15.27;;;9.10;99.90;;;;;;4934475;29;20040;-75
2022/04/16 07:01:48;;;;;;;20.55;14.05;;;9.20;99.90;;;;;;4907027;29;20040;-75
2022/04/16 07:04:14;;;;;;;18.25;12.82;;;9.30;99.90;;;;;;4919642;29;20512;-75
2022/04/16 07:06:42;;;;;;;21.52;16.20;;;9.40;99.90;;;;;;4936575;29;20046;-76
2022/04/16 07:09:10;;;;;;;20.35;14.75;;;9.40;99.90;;;;;;4932774;29;20052;-76
2022/04/16 07:11:35;;;;;;;20.25;15.00;;;9.40;99.90;;;;;;4900687;29;20047;-75
2022/04/16 07:14:01;;;;;;;19.75;12.93;;;9.40;99.90;;;;;;4900627;29;20044;-76
2022/04/16 07:16:26;;;;;;;20.52;14.90;;;9.40;99.90;;;;;;4916912;29;20513;-76
2022/04/16 07:18:52;;;;;;;20.17;14.57;;;9.40;99.90;;;;;;4935312;29;20040;-76
2022/04/16 07:21:18;;;;;;;20.75;14.27;;;9.40;99.90;;;;;;4919544;29;20047;-76
2022/04/16 07:23:43;;;;;;;19.00;13.40;;;9.50;99.90;;;;;;4919681;29;20402;-76
2022/04/16 07:26:09;;;;;;;19.10;13.63;;;9.50;99.90;;;;;;4935337;29;20043;-76
2022/04/16 07:28:34;;;;;;;21.27;14.95;;;9.50;99.90;;;;;;4918901;29;20047;-76
2022/04/16 07:31:00;;;;;;;19.38;13.00;;;9.50;99.90;;;;;;4919180;29;20039;-76
2022/04/16 07:33:31;;;;;;;19.38;14.52;;;9.60;99.90;;;;;;4919726;29;20047;-76
2022/04/16 07:35:57;;;;;;;17.23;13.07;;;9.70;99.90;;;;;;4934956;29;20047;-76
2022/04/16 07:38:22;;;;;;;19.77;14.30;;;9.70;99.90;;;;;;4935094;29;20039;-76
2022/04/16 07:40:48;;;;;;;18.30;12.98;;;9.80;99.90;;;;;;4919061;29;20039;-76
2022/04/16 07:43:17;;;;;;;17.88;13.25;;;9.90;99.90;;;;;;4919461;29;20071;-76
2022/04/16 07:45:43;;;;;;;18.65;13.18;;;9.90;99.90;;;;;;4934657;29;20052;-76
2022/04/16 07:48:09;;;;;;;20.20;13.63;;;10.00;99.90;;;;;;4934662;29;20050;-76
2022/04/16 07:50:34;;;;;;;21.08;14.68;;;10.00;99.90;;;;;;4935007;29;20050;-76
2022/04/16 07:53:00;;;;;;;17.50;12.85;;;10.10;99.90;;;;;;4918566;29;20040;-76
2022/04/16 07:55:31;;;;;;;17.48;13.43;;;10.10;99.90;;;;;;4918820;29;20062;-76
2022/04/16 07:57:57;;;;;;;17.70;12.50;;;10.30;99.90;;;;;;4918984;29;20044;-75
2022/04/16 08:00:23;;;;;;;15.18;11.43;;;10.30;99.90;;;;;;4918720;29;20082;-75
2022/04/16 08:02:48;;;;;;;19.67;13.90;;;10.40;99.90;;;;;;4934535;29;20078;-76
2022/04/16 08:05:14;;;;;;;21.00;14.13;;;10.40;99.90;;;;;;4934147;29;20085;-76
2022/04/16 08:07:39;;;;;;;19.88;14.07;;;10.40;99.90;;;;;;4934445;29;20442;-76
2022/04/16 08:10:08;;;;;;;15.27;11.60;;;10.40;99.90;;;;;;4918449;29;20048;-76
2022/04/16 08:12:33;;;;;;;15.52;11.23;;;10.50;99.90;;;;;;4934505;29;20059;-76
2022/04/16 08:14:59;;;;;;;16.15;12.23;;;10.60;99.90;;;;;;4934271;29;20051;-76
2022/04/16 08:17:24;;;;;;;15.10;12.15;;;10.70;99.90;;;;;;4934173;29;20044;-76
2022/04/16 08:19:50;;;;;;;14.80;11.20;;;10.60;99.90;;;;;;4918425;29;20414;-76
2022/04/16 08:22:21;;;;;;;13.50;10.73;;;10.70;99.90;;;;;;4934268;29;20040;-76
2022/04/16 08:27:32;;;;;;;15.52;9.88;;;10.80;99.90;;;;;;4932407;29;20187;-76
2022/04/16 08:29:57;;;;;;;13.75;10.55;;;10.90;99.90;;;;;;4917867;29;20130;-76
2022/04/16 08:32:23;;;;;;;14.82;10.82;;;11.40;99.90;;;;;;4918510;29;20130;-76
2022/04/16 08:34:48;;;;;;;14.00;10.30;;;12.00;99.90;;;;;;4917888;29;20046;-76
2022/04/16 08:37:14;;;;;;;13.73;10.30;;;12.70;99.90;;;;;;4933885;29;20144;-76
2022/04/16 08:39:39;;;;;;;12.93;9.98;;;13.30;99.90;;;;;;4917907;29;20090;-76
2022/04/16 08:42:05;;;;;;;13.40;9.85;;;13.60;99.90;;;;;;4933980;29;20043;-76
2022/04/16 08:44:31;;;;;;;13.10;9.70;;;14.00;97.10;;;;;;4934037;29;20167;-76
2022/04/16 08:46:59;;;;;;;12.07;9.27;;;14.10;99.10;;;;;;4933888;29;20039;-76
2022/04/16 08:49:25;;;;;;;11.55;8.38;;;14.40;94.30;;;;;;4917879;29;20108;-76
2022/04/16 08:51:51;;;;;;;10.05;8.68;;;14.50;92.90;;;;;;4933309;29;20038;-76
2022/04/16 08:54:16;;;;;;;12.65;9.68;;;14.60;91.80;;;;;;4917810;29;20041;-76
2022/04/16 08:56:42;;;;;;;11.55;8.45;;;14.60;95.70;;;;;;4933600;29;20114;-76
2022/04/16 08:59:08;;;;;;;10.07;8.27;;;14.80;94.00;;;;;;4917764;29;20050;-76
2022/04/16 09:01:36;;;;;;;12.38;8.18;;;15.10;86.30;;;;;;4933475;29;20046;-76
2022/04/16 09:04:02;;;;;;;10.30;7.93;;;14.90;91.20;;;;;;4917688;29;20126;-76
2022/04/16 09:08:54;;;;;;;10.30;8.23;;;14.80;93.20;;;;;;4969036;23;20104;-76
2022/04/16 09:11:26;;;;;;;8.80;5.75;;;15.00;94.60;;;;;;4968921;28;20051;-76
2022/04/16 09:13:56;;;;;;;10.35;6.00;;;15.30;90.30;;;;;;4952921;29;20046;-76
2022/04/16 09:16:22;;;;;;;8.55;6.18;;;15.80;78.20;;;;;;4953105;29;20441;-77
2022/04/16 09:18:50;;;;;;;7.28;5.63;;;15.90;74.00;;;;;;4936240;29;20504;-74
2022/04/16 09:21:16;;;;;;;8.48;5.22;;;16.00;66.60;;;;;;4953353;28;20108;-76
2022/04/16 09:23:52;;;;;;;7.43;5.78;;;15.90;66.40;;;;;;4948462;29;20473;-76
2022/04/16 09:26:35;;;;;;;8.98;5.78;;;15.70;76.90;;;;;;4934596;29;20046;-76
2022/04/16 09:29:12;;;;;;;6.78;5.60;;;15.80;72.70;;;;;;4952583;29;20122;-77
2022/04/16 09:31:40;;;;;;;7.13;5.40;;;15.90;81.90;;;;;;4936206;29;20097;-77
2022/04/16 09:34:26;;;;;;;6.95;5.93;;;16.20;86.00;;;;;;4947739;29;20533;-76
2022/04/16 09:36:54;;;;;;;5.95;4.40;;;16.60;84.10;;;;;;4938808;29;20059;-77
2022/04/16 09:39:22;;;;;;;3.85;3.33;;;17.00;59.00;;;;;;4934842;29;20402;-75
2022/04/16 09:41:51;;;;;;;6.03;4.10;;;16.90;55.70;;;;;;4921246;29;20087;-75
2022/04/16 09:44:19;;;;;;;6.50;4.07;;;16.60;56.90;;;;;;4937945;29;20130;-75
2022/04/16 09:46:46;;;;;;;6.72;4.10;;;16.40;60.00;;;;;;4940053;29;20489;-75
2022/04/16 09:49:13;;;;;;;6.80;3.90;;;16.30;63.50;;;;;;4955455;28;20043;-75
2022/04/16 09:51:42;;;;;;;5.97;4.35;;;16.50;67.00;;;;;;4938813;28;20048;-75
2022/04/16 09:54:09;;;;;;;4.97;4.20;;;17.00;57.20;;;;;;4936867;29;20035;-75
2022/04/16 09:56:36;;;;;;;4.80;3.65;;;16.90;63.30;;;;;;4955438;28;20047;-77
2022/04/16 09:59:12;;;;;;;4.40;3.22;;;17.10;67.90;;;;;;4941035;29;20579;-78
2022/04/16 10:01:38;;;;;;;4.18;3.30;;;17.60;58.60;;;;;;4956888;29;20074;-78
2022/04/16 10:04:07;;;;;;;4.57;2.50;;;17.80;59.70;;;;;;4956521;28;20048;-77
2022/04/16 10:06:34;;;;;;;3.80;2.70;;;18.30;51.90;;;;;;4942637;29;20043;-77
2022/04/16 10:09:13;;;;;;;4.07;2.70;;;18.40;47.90;;;;;;4959346;29;20129;-77
2022/04/16 10:14:41;;;;;;;6.32;2.92;;;17.30;50.20;;;;;;4954631;29;20047;-77
2022/04/16 10:17:28;;;;;;;3.55;2.80;;;16.90;54.70;;;;;;4968221;28;20125;-77
2022/04/16 10:19:56;;;;;;;4.38;2.60;;;17.10;57.70;;;;;;4954653;28;20050;-77
2022/04/16 10:22:27;;;;;;;3.22;2.80;;;17.50;58.40;;;;;;4938068;29;20064;-77
2022/04/16 10:24:56;;;;;;;5.22;2.80;;;18.00;51.30;;;;;;4956843;29;20070;-75
2022/04/16 10:27:27;;;;;;;5.70;3.10;;;17.90;49.30;;;;;;4956328;29;20042;-76
2022/04/16 10:29:57;;;;;;;3.60;2.40;;;17.30;53.30;;;;;;4939519;29;20058;-75
2022/04/16 10:32:27;;;;;;;3.25;2.28;;;17.20;54.30;;;;;;4951288;29;20098;-75
2022/04/16 10:35:02;;;;;;;4.20;2.22;;;17.60;50.00;;;;;;4955842;29;20043;-75
2022/04/16 10:37:37;;;;;;;4.20;2.55;;;17.70;48.50;;;;;;4940481;29;20390;-75
2022/04/16 10:40:16;;;;;;;2.42;1.75;;;17.70;48.60;;;;;;4939872;29;20039;-75
2022/04/16 10:42:48;;;;;;;4.03;1.92;;;17.40;48.20;;;;;;4939305;29;20031;-76
2022/04/16 10:45:13;;;;;;;1.90;1.65;;;17.40;48.20;;;;;;4953484;29;20050;-77
2022/04/16 10:47:41;;;;;;;2.45;1.90;;;17.50;46.20;;;;;;4954058;29;20043;-77
2022/04/16 10:50:19;;;;;;;2.72;1.80;;;17.30;47.30;;;;;;4956563;28;20122;-77
2022/04/16 10:53:00;;;;;;;2.00;1.63;;;17.20;48.10;;;;;;4941192;29;20047;-77
2022/04/16 10:55:30;;;;;;;2.72;1.88;;;17.30;47.20;;;;;;4957792;29;20301;-77
2022/04/16 10:58:03;;;;;;;3.88;2.03;;;17.60;46.70;;;;;;4943390;29;20078;-77
2022/04/16 11:00:45;;;;;;;3.00;1.98;;;17.60;48.40;;;;;;4958423;29;20067;-77
2022/04/16 11:03:36;;;;;;;2.15;1.60;;;17.80;47.60;;;;;;4942729;29;20051;-77
2022/04/16 11:06:05;;;;;;;2.45;1.80;;;18.20;45.40;;;;;;4958514;29;20082;-77
2022/04/16 11:08:35;;;;;;;2.22;1.85;;;18.10;45.10;;;;;;4959156;28;20134;-77
2022/04/16 11:11:03;;;;;;;2.38;1.80;;;18.10;45.00;;;;;;4958107;29;20078;-77
2022/04/16 11:13:34;;;;;;;1.85;1.55;;;17.80;45.80;;;;;;4942198;29;20126;-77
2022/04/16 11:16:01;;;;;;;4.35;1.90;;;18.00;45.40;;;;;;4942828;29;20062;-77
2022/04/16 11:18:47;;;;;;;2.30;1.80;;;18.00;46.00;;;;;;4957730;29;20103;-77
2022/04/16 11:21:16;;;;;;;3.53;2.10;;;18.20;43.50;;;;;;4956441;29;20039;-77
2022/04/16 11:23:47;;;;;;;3.78;1.80;;;18.10;43.90;;;;;;4955364;29;20497;-76
2022/04/16 11:34:34;;;;;;;4.13;1.95;;;19.00;43.10;;;;;;4956243;29;20078;-75
2022/04/16 11:37:00;;;;;;;3.28;1.90;;;19.00;43.90;;;;;;4940332;29;20070;-76
2022/04/16 11:39:27;;;;;;;2.78;1.58;;;19.30;43.20;;;;;;4954112;29;20520;-75
2022/04/16 11:41:56;;;;;;;3.25;1.55;;;19.60;41.20;;;;;;4960066;28;20074;-76
2022/04/16 11:44:41;;;;;;;2.78;1.50;;;19.50;42.80;;;;;;4924080;29;20091;-76
2022/04/16 11:47:18;;;;;;;2.90;1.60;;;19.70;41.30;;;;;;4936846;29;20074;-76
2022/04/16 11:49:46;;;;;;;2.63;1.48;;;19.60;43.40;;;;;;4934758;29;20039;-77
2022/04/16 11:52:13;;;;;;;1.98;1.65;;;19.80;41.30;;;;;;4934522;29;20032;-76
2022/04/16 11:54:39;;;;;;;2.40;1.20;;;19.90;42.10;;;;;;4934737;29;20058;-76
2022/04/16 11:57:04;;;;;;;1.90;1.02;;;20.10;42.10;;;;;;4942418;29;20125;-76
2022/04/16 11:59:31;;;;;;;1.23;0.70;;;20.10;41.20;;;;;;4953379;29;20114;-76
2022/04/16 12:02:08;;;;;;;0.90;0.68;;;20.30;40.60;;;;;;4953449;28;20039;-76
2022/04/16 12:04:34;;;;;;;1.42;0.80;;;20.70;33.70;;;;;;4937644;29;20035;-75
2022/04/16 12:07:00;;;;;;;1.30;1.02;;;20.50;32.60;;;;;;4937551;29;20509;-75
2022/04/16 12:09:26;;;;;;;2.75;0.90;;;20.00;36.80;;;;;;4937535;29;20434;-76
2022/04/16 12:11:55;;;;;;;7.40;1.70;;;19.90;38.40;;;;;;4946938;29;20054;-75
2022/04/16 12:14:23;;;;;;;1.00;0.90;;;20.20;38.80;;;;;;4934683;29;20046;-75
2022/04/16 12:16:59;;;;;;;2.35;1.45;;;20.30;35.50;;;;;;4918278;29;20079;-75
2022/04/16 12:19:35;;;;;;;1.95;1.52;;;19.90;38.00;;;;;;4933865;29;20043;-75
2022/04/16 12:22:01;;;;;;;2.25;1.42;;;19.50;38.20;;;;;;4919258;29;20099;-75
2022/04/16 12:24:30;;;;;;;3.20;1.70;;;19.30;41.50;;;;;;4933986;29;20065;-75
2022/04/16 12:26:58;;;;;;;2.00;1.27;;;19.50;41.60;;;;;;4934017;29;20050;-75
2022/04/16 12:29:29;;;;;;;2.78;1.55;;;19.70;39.20;;;;;;4946865;29;20502;-75
2022/04/16 12:32:00;;;;;;;3.10;1.73;;;19.30;39.90;;;;;;4937022;29;20107;-75
2022/04/16 12:34:26;;;;;;;1.20;1.10;;;19.00;41.40;;;;;;4950615;29;20045;-75
2022/04/16 12:36:53;;;;;;;3.60;1.10;;;18.90;43.70;;;;;;4933608;29;20477;-75
2022/04/16 12:39:19;;;;;;;2.10;1.10;;;19.40;42.10;;;;;;4933557;29;20044;-75
2022/04/16 12:41:45;;;;;;;1.92;1.10;;;20.10;41.30;;;;;;4918278;29;20040;-75
2022/04/16 12:44:10;;;;;;;2.88;1.40;;;20.60;37.40;;;;;;4933679;29;20384;-75
2022/04/16 12:46:36;;;;;;;2.42;1.25;;;20.40;38.00;;;;;;4940507;29;20051;-75
2022/04/16 12:49:01;;;;;;;1.85;1.30;;;20.10;38.40;;;;;;4952520;29;20069;-75
2022/04/16 12:51:27;;;;;;;1.70;1.30;;;20.20;38.80;;;;;;4952786;29;20058;-75
2022/04/16 12:53:53;;;;;;;1.55;1.20;;;20.00;36.40;;;;;;4936941;29;20046;-75
2022/04/16 12:56:19;;;;;;;1.77;1.40;;;19.90;39.90;;;;;;4920961;29;20047;-75
2022/04/16 12:58:44;;;;;;;2.33;1.30;;;20.30;40.80;;;;;;4952313;29;20038;-76
2022/04/16 13:01:10;;;;;;;3.80;1.08;;;20.90;40.50;;;;;;4952862;29;20090;-76
2022/04/16 13:03:35;;;;;;;1.35;0.90;;;21.40;40.80;;;;;;4936693;29;20047;-75
2022/04/16 13:06:02;;;;;;;3.00;1.25;;;21.90;36.80;;;;;;4952776;29;20142;-75
2022/04/16 13:08:30;;;;;;;1.63;1.30;;;21.60;32.40;;;;;;4952253;29;20043;-75
2022/04/16 13:10:55;;;;;;;2.13;1.20;;;20.90;33.80;;;;;;4952635;29;20613;-75